createdAt,value
2023-03-14T00:04:31.443Z,65.87
2023-03-14T00:09:53.161Z,65.54
2023-03-14T00:15:14.869Z,65.70
2023-03-14T00:20:36.372Z,65.52
2023-03-14T00:26:11.166Z,65.09
2023-03-14T00:31:33.122Z,64.76
2023-03-14T00:36:55.562Z,64.70
2023-03-14T00:42:17.836Z,64.18
2023-03-14T00:47:39.286Z,64.31
2023-03-14T00:53:00.522Z,64.11
2023-03-14T00:58:03.757Z,63.67
2023-03-14T01:03:07.172Z,63.55
2023-03-14T01:08:10.173Z,62.84
2023-03-14T01:13:12.940Z,62.76
2023-03-14T01:18:15.878Z,63.01
2023-03-14T01:23:19.439Z,63.48
2023-03-14T01:28:22.356Z,64.27
2023-03-14T01:33:25.195Z,65.55
2023-03-14T01:38:46.947Z,65.73
2023-03-14T01:43:52.042Z,66.12
2023-03-14T01:49:33.114Z,66.54
2023-03-14T01:54:47.741Z,66.88
2023-03-14T01:59:58.141Z,67.30
2023-03-14T02:05:01.189Z,67.40
2023-03-14T02:10:28.542Z,67.82
2023-03-14T02:15:33.420Z,68.64
2023-03-14T02:21:27.850Z,69.16
2023-03-14T02:26:41.556Z,69.31
2023-03-14T02:31:44.642Z,68.50
2023-03-14T02:36:48.609Z,67.98
2023-03-14T02:41:51.671Z,68.08
2023-03-14T02:46:54.805Z,67.79
2023-03-14T02:51:57.779Z,67.76
2023-03-14T02:57:01.161Z,67.83
2023-03-14T03:02:04.554Z,67.42
2023-03-14T03:07:08.373Z,67.89
2023-03-14T03:12:11.412Z,68.10
2023-03-14T03:17:14.894Z,68.06
2023-03-14T03:22:17.779Z,68.70
2023-03-14T03:27:20.671Z,68.63
2023-03-14T03:32:23.549Z,67.86
2023-03-14T03:37:26.924Z,67.43
2023-03-14T03:42:29.990Z,67.31
2023-03-14T03:47:33.030Z,67.03
2023-03-14T03:52:36.014Z,67.07
2023-03-14T03:57:38.957Z,67.00
2023-03-14T04:02:42.542Z,66.56
2023-03-14T04:07:49.097Z,66.87
2023-03-14T04:12:56.930Z,66.71
2023-03-14T04:18:02.924Z,66.58
2023-03-14T04:23:06.776Z,66.88
2023-03-14T04:28:09.678Z,67.66
2023-03-14T04:33:15.531Z,67.79
2023-03-14T04:38:23.342Z,67.94
2023-03-14T04:43:27.985Z,68.38
2023-03-14T04:48:39.457Z,68.24
2023-03-14T04:53:43.961Z,67.94
2023-03-14T04:58:49.161Z,67.85
2023-03-14T05:03:54.456Z,67.92
2023-03-14T05:09:16.584Z,67.63
2023-03-14T05:14:25.124Z,66.94
2023-03-14T05:19:54.251Z,66.33
2023-03-14T05:25:15.728Z,65.48
2023-03-14T05:30:48.164Z,64.86
2023-03-14T05:36:09.997Z,63.92
2023-03-14T05:41:33.419Z,64.14
2023-03-14T05:46:54.737Z,63.15
2023-03-14T05:51:57.555Z,63.02
2023-03-14T05:57:20.400Z,61.99
2023-03-14T06:02:41.890Z,60.00
2023-03-14T06:07:55.377Z,58.89
2023-03-14T06:12:58.563Z,56.89
2023-03-14T06:18:01.555Z,55.25
2023-03-14T06:23:04.979Z,52.96
2023-03-14T06:28:08.160Z,52.88
2023-03-14T06:33:11.701Z,52.15
2023-03-14T06:38:17.369Z,52.27
2023-03-14T06:43:38.865Z,51.13
2023-03-14T06:48:43.639Z,50.31
2023-03-14T06:53:47.581Z,49.62
2023-03-14T06:58:52.413Z,48.53
2023-03-14T07:03:58.337Z,48.86
2023-03-14T07:09:03.019Z,50.56
2023-03-14T07:14:07.309Z,50.70
2023-03-14T07:19:10.401Z,50.26
2023-03-14T07:24:14.226Z,49.67
2023-03-14T07:29:17.126Z,49.17
2023-03-14T07:34:20.759Z,48.86
2023-03-14T07:39:23.935Z,49.65
2023-03-14T07:44:49.448Z,50.57
2023-03-14T07:49:52.248Z,49.86
2023-03-14T07:54:55.129Z,49.97
2023-03-14T07:59:58.142Z,51.22
2023-03-14T08:05:01.078Z,51.71
2023-03-14T08:10:05.516Z,51.22
2023-03-14T08:15:08.829Z,52.23
2023-03-14T08:20:14.038Z,52.51
2023-03-14T08:25:17.423Z,52.54
2023-03-14T08:30:22.122Z,51.74
2023-03-14T08:35:26.420Z,51.68
2023-03-14T08:40:29.167Z,51.37
2023-03-14T08:45:31.938Z,51.72
2023-03-14T08:50:34.911Z,51.45
2023-03-14T08:55:37.791Z,50.89
2023-03-14T09:00:40.672Z,52.05
2023-03-14T09:05:43.550Z,51.83
2023-03-14T09:10:46.672Z,52.04
2023-03-14T09:15:57.251Z,51.63
2023-03-14T09:21:00.154Z,52.23
2023-03-14T09:26:03.057Z,52.41
2023-03-14T09:31:11.304Z,52.48
2023-03-14T09:36:14.280Z,51.91
2023-03-14T09:41:29.218Z,52.10
2023-03-14T09:46:35.020Z,51.91
2023-03-14T09:51:38.510Z,51.32
2023-03-14T09:56:41.845Z,51.58
2023-03-14T10:01:44.767Z,50.12
2023-03-14T10:06:49.379Z,50.21
2023-03-14T10:11:58.483Z,50.54
2023-03-14T10:17:13.854Z,50.38
2023-03-14T10:22:16.741Z,50.00
2023-03-14T10:27:22.570Z,49.68
2023-03-14T10:32:39.559Z,49.05
2023-03-14T10:38:01.097Z,48.16
2023-03-14T10:43:06.705Z,49.09
2023-03-14T10:48:16.297Z,49.34
2023-03-14T10:53:20.297Z,48.82
2023-03-14T10:58:26.581Z,49.38
2023-03-14T11:03:33.525Z,48.97
2023-03-14T11:08:59.173Z,48.96
2023-03-14T11:14:11.243Z,48.77
2023-03-14T11:19:17.238Z,49.23
2023-03-14T11:24:38.430Z,49.61
2023-03-14T11:29:56.722Z,49.77
2023-03-14T11:35:04.560Z,49.41
2023-03-14T11:40:14.194Z,49.22
2023-03-14T11:45:26.535Z,48.78
2023-03-14T11:50:31.638Z,48.86
2023-03-14T11:55:37.264Z,48.55
2023-03-14T12:00:42.971Z,48.91
2023-03-14T12:06:15.298Z,49.25
2023-03-14T12:11:46.386Z,49.10
2023-03-14T12:16:50.520Z,48.37
2023-03-14T12:22:01.658Z,48.58
2023-03-14T12:27:06.706Z,49.71
2023-03-14T12:32:26.470Z,50.18
2023-03-14T12:37:47.916Z,50.18
2023-03-14T12:43:04.423Z,50.86
2023-03-14T12:48:11.539Z,51.15
2023-03-14T12:53:39.249Z,51.76
2023-03-14T12:59:03.717Z,52.25
2023-03-14T13:04:11.534Z,52.30
2023-03-14T13:09:35.638Z,52.92
2023-03-14T13:14:46.222Z,53.17
2023-03-14T13:19:57.188Z,53.20
2023-03-14T13:25:05.541Z,52.92
2023-03-14T13:30:16.621Z,54.16
2023-03-14T13:35:27.321Z,54.55
2023-03-14T13:40:31.977Z,54.61
2023-03-14T13:45:45.919Z,54.62
2023-03-14T13:50:55.709Z,54.64
2023-03-14T13:56:03.549Z,55.17
2023-03-14T14:01:11.622Z,55.67
2023-03-14T14:06:37.064Z,55.98
2023-03-14T14:12:14.840Z,56.44
2023-03-14T14:17:47.661Z,56.91
2023-03-14T14:22:51.998Z,57.03
2023-03-14T14:27:54.876Z,56.99
2023-03-14T14:33:22.006Z,57.28
2023-03-14T14:38:26.086Z,57.53
2023-03-14T14:43:31.790Z,58.02
2023-03-14T14:48:38.876Z,58.16
2023-03-14T14:53:45.679Z,58.71
2023-03-14T14:58:48.807Z,58.52
2023-03-14T15:03:53.985Z,59.28
2023-03-14T15:08:57.044Z,59.70
2023-03-14T15:13:59.847Z,59.87
2023-03-14T15:19:23.712Z,59.77
2023-03-14T15:24:27.365Z,59.44
2023-03-14T15:29:30.418Z,59.67
2023-03-14T15:34:33.262Z,59.38
2023-03-14T15:39:36.321Z,59.30
2023-03-14T15:44:40.294Z,59.84
2023-03-14T15:49:43.219Z,60.02
2023-03-14T15:54:46.087Z,60.20
2023-03-14T15:59:48.876Z,60.26
2023-03-14T16:04:51.838Z,60.46
2023-03-14T16:09:54.962Z,60.69
2023-03-14T16:14:57.820Z,60.97
2023-03-14T16:20:00.798Z,61.60
2023-03-14T16:25:06.209Z,62.39
2023-03-14T16:30:09.748Z,63.11
2023-03-14T16:35:12.577Z,63.42
2023-03-14T16:40:15.673Z,63.74
2023-03-14T16:45:18.481Z,64.07
2023-03-14T16:50:21.646Z,63.88
2023-03-14T16:55:24.631Z,63.43
2023-03-14T17:00:27.766Z,63.40
2023-03-14T17:05:51.943Z,63.78
2023-03-14T17:10:55.476Z,63.91
2023-03-14T17:16:00.731Z,63.95
2023-03-14T17:21:04.321Z,64.05
2023-03-14T17:26:09.105Z,64.08
2023-03-14T17:31:17.370Z,64.18
2023-03-14T17:36:20.445Z,64.14
2023-03-14T17:41:23.281Z,64.23
2023-03-14T17:46:27.459Z,64.26
2023-03-14T17:51:30.399Z,64.59
2023-03-14T17:56:33.363Z,64.61
2023-03-14T18:01:36.374Z,64.74
2023-03-14T18:06:39.440Z,64.88
2023-03-14T18:11:42.840Z,64.90
2023-03-14T18:16:51.590Z,65.00
2023-03-14T18:21:54.530Z,64.88
2023-03-14T18:26:57.577Z,65.00
2023-03-14T18:32:00.807Z,64.77
2023-03-14T18:37:04.278Z,64.64
2023-03-14T18:42:07.093Z,64.61
2023-03-14T18:47:10.327Z,64.78
2023-03-14T18:52:13.383Z,64.42
2023-03-14T18:57:16.240Z,64.41
2023-03-14T19:02:19.400Z,64.59
2023-03-14T19:07:23.872Z,64.42
2023-03-14T19:12:30.121Z,64.20
2023-03-14T19:17:33.674Z,63.90
2023-03-14T19:22:36.579Z,63.83
2023-03-14T19:27:39.565Z,63.67
2023-03-14T19:32:42.613Z,63.28
2023-03-14T19:37:48.187Z,63.29
2023-03-14T19:42:51.361Z,63.38
2023-03-14T19:47:54.586Z,63.46
2023-03-14T19:52:58.588Z,63.71
2023-03-14T19:58:02.080Z,63.85
2023-03-14T20:03:05.102Z,63.71
2023-03-14T20:08:08.646Z,63.85
2023-03-14T20:13:20.716Z,63.71
2023-03-14T20:18:24.158Z,63.64
2023-03-14T20:23:27.070Z,63.71
2023-03-14T20:28:30.107Z,63.85
2023-03-14T20:33:51.675Z,63.56
2023-03-14T20:38:54.592Z,63.61
2023-03-14T20:43:57.526Z,63.47
2023-03-14T20:49:02.435Z,63.66
2023-03-14T20:54:05.523Z,63.45
2023-03-14T20:59:08.668Z,63.48
2023-03-14T21:04:11.568Z,63.77
2023-03-14T21:09:15.027Z,63.85
2023-03-14T21:14:19.001Z,63.58
2023-03-14T21:19:22.835Z,63.67
2023-03-14T21:24:26.010Z,63.72
2023-03-14T21:29:28.925Z,63.74
2023-03-14T21:34:31.724Z,63.90
2023-03-14T21:39:34.782Z,64.02
2023-03-14T21:44:37.661Z,64.26
2023-03-14T21:49:40.970Z,63.96
2023-03-14T21:54:43.898Z,63.94
2023-03-14T21:59:47.348Z,63.92
2023-03-14T22:04:50.173Z,64.06
2023-03-14T22:09:53.459Z,63.90
2023-03-14T22:14:56.315Z,64.06
2023-03-14T22:19:59.800Z,63.66
2023-03-14T22:25:02.730Z,63.89
2023-03-14T22:30:06.106Z,63.88
2023-03-14T22:35:09.610Z,63.83
2023-03-14T22:40:31.025Z,63.73
2023-03-14T22:45:34.018Z,63.58
2023-03-14T22:50:40.483Z,63.69
2023-03-14T22:56:02.875Z,63.58
2023-03-14T23:01:06.931Z,63.64
2023-03-14T23:06:10.002Z,63.68
2023-03-14T23:11:16.368Z,63.91
2023-03-14T23:16:25.218Z,63.75
2023-03-14T23:21:53.336Z,63.76
2023-03-14T23:27:16.837Z,63.65
2023-03-14T23:32:19.800Z,63.68
2023-03-14T23:37:24.803Z,63.81
2023-03-14T23:42:27.918Z,63.63
2023-03-14T23:47:30.912Z,63.75
2023-03-14T23:52:52.402Z,63.74
2023-03-14T23:57:55.285Z,63.48
